sensor_id;sensor_type;location;lat;lon;timestamp;pressure;altitude;pressure_sealevel;temperature;humidity
61900;BME280;47853;55.890;37.664;2024-03-02T00:00:20;100582.53;;;8.84;68.51
61900;BME280;47853;55.890;37.664;2024-03-02T00:02:47;100576.84;;;9.32;66.61
61900;BME280;47853;55.890;37.664;2024-03-02T00:05:21;100581.50;;;8.97;68.26
61900;BME280;47853;55.890;37.664;2024-03-02T00:07:54;100584.88;;;8.55;69.96
61900;BME280;47853;55.890;37.664;2024-03-02T00:10:22;100582.28;;;9.30;69.10
61900;BME280;47853;55.890;37.664;2024-03-02T00:12:48;100584.97;;;9.92;63.87
61900;BME280;47853;55.890;37.664;2024-03-02T00:15:47;100576.50;;;9.77;62.58
61900;BME280;47853;55.890;37.664;2024-03-02T00:18:14;100573.53;;;9.61;63.16
61900;BME280;47853;55.890;37.664;2024-03-02T00:20:41;100569.50;;;9.14;65.17
61900;BME280;47853;55.890;37.664;2024-03-02T00:23:08;100571.53;;;8.56;66.79
61900;BME280;47853;55.890;37.664;2024-03-02T00:25:44;100576.22;;;9.18;68.36
61900;BME280;47853;55.890;37.664;2024-03-02T00:28:22;100579.03;;;9.05;67.45
61900;BME280;47853;55.890;37.664;2024-03-02T00:30:54;100578.69;;;8.33;69.34
61900;BME280;47853;55.890;37.664;2024-03-02T00:33:20;100572.28;;;8.80;67.49
61900;BME280;47853;55.890;37.664;2024-03-02T00:35:46;100565.50;;;8.66;67.69
61900;BME280;47853;55.890;37.664;2024-03-02T00:38:12;100563.94;;;9.48;65.19
61900;BME280;47853;55.890;37.664;2024-03-02T00:40:39;100563.53;;;9.74;62.09
61900;BME280;47853;55.890;37.664;2024-03-02T00:43:04;100565.84;;;9.57;62.79
61900;BME280;47853;55.890;37.664;2024-03-02T00:45:30;100570.63;;;9.00;64.11
61900;BME280;47853;55.890;37.664;2024-03-02T00:47:55;100562.22;;;9.58;62.11
61900;BME280;47853;55.890;37.664;2024-03-02T00:50:21;100579.16;;;10.08;60.64
61900;BME280;47853;55.890;37.664;2024-03-02T00:52:46;100575.69;;;10.37;58.85
61900;BME280;47853;55.890;37.664;2024-03-02T00:55:12;100572.06;;;10.28;57.85
61900;BME280;47853;55.890;37.664;2024-03-02T00:57:37;100569.97;;;9.81;59.21
61900;BME280;47853;55.890;37.664;2024-03-02T01:00:03;100572.31;;;10.15;58.89
61900;BME280;47853;55.890;37.664;2024-03-02T01:02:29;100570.81;;;10.33;57.54
61900;BME280;47853;55.890;37.664;2024-03-02T01:04:54;100574.13;;;10.05;57.52
61900;BME280;47853;55.890;37.664;2024-03-02T01:07:19;100565.13;;;9.96;59.60
61900;BME280;47853;55.890;37.664;2024-03-02T01:09:45;100565.56;;;10.01;58.67
61900;BME280;47853;55.890;37.664;2024-03-02T01:12:10;100584.44;;;10.49;58.04
61900;BME280;47853;55.890;37.664;2024-03-02T01:14:36;100587.94;;;10.69;56.93
61900;BME280;47853;55.890;37.664;2024-03-02T01:17:01;100587.81;;;11.00;54.97
61900;BME280;47853;55.890;37.664;2024-03-02T01:19:26;100589.16;;;11.24;53.48
61900;BME280;47853;55.890;37.664;2024-03-02T01:21:52;100590.59;;;11.09;54.04
61900;BME280;47853;55.890;37.664;2024-03-02T01:24:17;100580.97;;;11.65;51.88
61900;BME280;47853;55.890;37.664;2024-03-02T01:26:43;100581.69;;;11.48;51.81
61900;BME280;47853;55.890;37.664;2024-03-02T01:29:08;100592.78;;;11.90;51.00
61900;BME280;47853;55.890;37.664;2024-03-02T01:31:33;100587.47;;;11.81;50.14
61900;BME280;47853;55.890;37.664;2024-03-02T01:33:59;100587.66;;;11.69;51.11
61900;BME280;47853;55.890;37.664;2024-03-02T01:36:24;100587.25;;;11.64;50.75
61900;BME280;47853;55.890;37.664;2024-03-02T01:38:50;100588.34;;;11.14;51.21
61900;BME280;47853;55.890;37.664;2024-03-02T01:41:15;100574.66;;;11.09;52.53
61900;BME280;47853;55.890;37.664;2024-03-02T01:43:43;100574.63;;;11.28;52.66
61900;BME280;47853;55.890;37.664;2024-03-02T01:46:12;100589.50;;;11.01;52.45
61900;BME280;47853;55.890;37.664;2024-03-02T01:48:37;100584.19;;;10.72;53.71
61900;BME280;47853;55.890;37.664;2024-03-02T01:51:03;100586.69;;;10.73;54.33
61900;BME280;47853;55.890;37.664;2024-03-02T01:53:29;100576.78;;;10.66;54.26
61900;BME280;47853;55.890;37.664;2024-03-02T01:55:54;100576.19;;;10.92;53.86
61900;BME280;47853;55.890;37.664;2024-03-02T01:58:20;100568.50;;;11.08;53.32
61900;BME280;47853;55.890;37.664;2024-03-02T02:00:45;100583.00;;;11.34;52.44
61900;BME280;47853;55.890;37.664;2024-03-02T02:03:11;100591.88;;;11.14;52.62
61900;BME280;47853;55.890;37.664;2024-03-02T02:05:37;100585.28;;;11.09;52.71
61900;BME280;47853;55.890;37.664;2024-03-02T02:08:02;100593.06;;;11.40;51.81
61900;BME280;47853;55.890;37.664;2024-03-02T02:10:28;100592.53;;;11.26;52.43
61900;BME280;47853;55.890;37.664;2024-03-02T02:12:53;100587.50;;;11.23;52.08
61900;BME280;47853;55.890;37.664;2024-03-02T02:15:29;100597.31;;;10.73;52.98
61900;BME280;47853;55.890;37.664;2024-03-02T02:17:55;100589.06;;;10.86;53.77
61900;BME280;47853;55.890;37.664;2024-03-02T02:20:21;100575.22;;;10.63;54.41
61900;BME280;47853;55.890;37.664;2024-03-02T02:25:19;100584.72;;;11.15;53.53
61900;BME280;47853;55.890;37.664;2024-03-02T02:27:45;100591.44;;;10.99;53.32
61900;BME280;47853;55.890;37.664;2024-03-02T02:30:11;100601.56;;;10.35;55.02
61900;BME280;47853;55.890;37.664;2024-03-02T02:32:36;100593.13;;;10.91;53.93
61900;BME280;47853;55.890;37.664;2024-03-02T02:35:02;100607.84;;;8.98;60.09
61900;BME280;47853;55.890;37.664;2024-03-02T02:37:27;100606.09;;;10.04;59.61
61900;BME280;47853;55.890;37.664;2024-03-02T02:39:53;100616.25;;;9.98;58.82
61900;BME280;47853;55.890;37.664;2024-03-02T02:42:18;100619.03;;;10.38;57.46
61900;BME280;47853;55.890;37.664;2024-03-02T02:44:43;100615.25;;;10.30;57.53
61900;BME280;47853;55.890;37.664;2024-03-02T02:47:09;100629.03;;;10.46;57.33
61900;BME280;47853;55.890;37.664;2024-03-02T02:49:34;100609.19;;;10.59;56.49
61900;BME280;47853;55.890;37.664;2024-03-02T02:52:00;100619.56;;;10.63;56.53
61900;BME280;47853;55.890;37.664;2024-03-02T02:54:25;100619.97;;;10.68;55.04
61900;BME280;47853;55.890;37.664;2024-03-02T02:56:50;100608.94;;;10.82;54.68
61900;BME280;47853;55.890;37.664;2024-03-02T02:59:16;100606.44;;;9.37;58.92
61900;BME280;47853;55.890;37.664;2024-03-02T03:01:41;100596.84;;;8.26;65.53
61900;BME280;47853;55.890;37.664;2024-03-02T03:04:07;100604.44;;;8.20;69.09
61900;BME280;47853;55.890;37.664;2024-03-02T03:06:34;100609.31;;;8.59;70.31
61900;BME280;47853;55.890;37.664;2024-03-02T03:09:00;100615.50;;;7.68;73.74
61900;BME280;47853;55.890;37.664;2024-03-02T03:11:25;100615.63;;;7.55;74.76
61900;BME280;47853;55.890;37.664;2024-03-02T03:13:53;100609.50;;;8.23;72.54
61900;BME280;47853;55.890;37.664;2024-03-02T03:16:19;100600.81;;;7.52;78.79
61900;BME280;47853;55.890;37.664;2024-03-02T03:18:44;100618.13;;;8.36;75.63
61900;BME280;47853;55.890;37.664;2024-03-02T03:21:10;100613.94;;;8.22;72.86
61900;BME280;47853;55.890;37.664;2024-03-02T03:23:35;100603.69;;;7.49;76.43
61900;BME280;47853;55.890;37.664;2024-03-02T03:26:00;100617.19;;;7.69;75.95
61900;BME280;47853;55.890;37.664;2024-03-02T03:28:26;100622.34;;;7.12;82.70
61900;BME280;47853;55.890;37.664;2024-03-02T03:30:54;100605.22;;;7.29;82.42
61900;BME280;47853;55.890;37.664;2024-03-02T03:33:20;100618.63;;;7.73;80.33
61900;BME280;47853;55.890;37.664;2024-03-02T03:35:45;100602.97;;;7.47;80.11
61900;BME280;47853;55.890;37.664;2024-03-02T03:38:10;100615.94;;;7.39;80.67
61900;BME280;47853;55.890;37.664;2024-03-02T03:40:36;100605.13;;;7.06;83.24
61900;BME280;47853;55.890;37.664;2024-03-02T03:43:01;100605.03;;;6.72;87.42
61900;BME280;47853;55.890;37.664;2024-03-02T03:45:27;100591.09;;;6.70;88.47
61900;BME280;47853;55.890;37.664;2024-03-02T03:47:53;100600.44;;;6.99;85.46
61900;BME280;47853;55.890;37.664;2024-03-02T03:50:19;100595.03;;;8.38;78.45
61900;BME280;47853;55.890;37.664;2024-03-02T03:52:44;100606.81;;;8.34;74.11
61900;BME280;47853;55.890;37.664;2024-03-02T03:55:10;100603.25;;;7.90;75.26
61900;BME280;47853;55.890;37.664;2024-03-02T03:57:35;100607.19;;;8.41;73.15
61900;BME280;47853;55.890;37.664;2024-03-02T04:00:01;100608.50;;;7.44;76.41
61900;BME280;47853;55.890;37.664;2024-03-02T04:02:26;100607.44;;;8.15;74.99
61900;BME280;47853;55.890;37.664;2024-03-02T04:04:52;100604.34;;;7.64;78.32
61900;BME280;47853;55.890;37.664;2024-03-02T04:07:20;100605.75;;;7.91;76.54
61900;BME280;47853;55.890;37.664;2024-03-02T04:09:45;100596.88;;;7.11;77.65
61900;BME280;47853;55.890;37.664;2024-03-02T04:12:11;100597.13;;;7.66;78.22
61900;BME280;47853;55.890;37.664;2024-03-02T04:14:36;100612.84;;;7.57;77.43
61900;BME280;47853;55.890;37.664;2024-03-02T04:17:01;100590.88;;;8.68;72.44
61900;BME280;47853;55.890;37.664;2024-03-02T04:19:27;100604.84;;;8.70;70.88
61900;BME280;47853;55.890;37.664;2024-03-02T04:21:54;100612.63;;;7.94;71.50
61900;BME280;47853;55.890;37.664;2024-03-02T04:24:19;100607.19;;;8.30;71.47
61900;BME280;47853;55.890;37.664;2024-03-02T04:26:44;100603.00;;;7.70;74.11
61900;BME280;47853;55.890;37.664;2024-03-02T04:29:10;100610.84;;;8.06;74.88
61900;BME280;47853;55.890;37.664;2024-03-02T04:31:35;100619.53;;;7.38;79.79
61900;BME280;47853;55.890;37.664;2024-03-02T04:34:01;100607.28;;;7.37;79.95
61900;BME280;47853;55.890;37.664;2024-03-02T04:36:26;100613.72;;;7.80;77.74
61900;BME280;47853;55.890;37.664;2024-03-02T04:38:51;100609.75;;;7.16;79.46
61900;BME280;47853;55.890;37.664;2024-03-02T04:41:17;100607.81;;;6.82;83.78
61900;BME280;47853;55.890;37.664;2024-03-02T04:43:42;100583.66;;;7.00;84.26
61900;BME280;47853;55.890;37.664;2024-03-02T04:46:08;100613.81;;;8.35;76.34
61900;BME280;47853;55.890;37.664;2024-03-02T04:48:34;100621.03;;;7.99;75.37
61900;BME280;47853;55.890;37.664;2024-03-02T04:50:59;100605.44;;;7.84;74.71
61900;BME280;47853;55.890;37.664;2024-03-02T04:53:25;100602.84;;;8.51;73.15
61900;BME280;47853;55.890;37.664;2024-03-02T04:55:50;100617.34;;;8.02;74.49
61900;BME280;47853;55.890;37.664;2024-03-02T04:58:15;100606.44;;;8.94;71.27
61900;BME280;47853;55.890;37.664;2024-03-02T05:00:41;100597.63;;;8.61;69.27
61900;BME280;47853;55.890;37.664;2024-03-02T05:03:06;100617.66;;;8.31;73.45
61900;BME280;47853;55.890;37.664;2024-03-02T05:05:32;100616.34;;;7.68;75.73
61900;BME280;47853;55.890;37.664;2024-03-02T05:07:57;100624.94;;;7.01;84.65
61900;BME280;47853;55.890;37.664;2024-03-02T05:10:23;100607.59;;;7.79;80.85
61900;BME280;47853;55.890;37.664;2024-03-02T05:12:48;100607.53;;;7.34;84.10
61900;BME280;47853;55.890;37.664;2024-03-02T05:15:14;100610.28;;;7.44;84.10
61900;BME280;47853;55.890;37.664;2024-03-02T05:17:41;100608.03;;;7.62;84.61
61900;BME280;47853;55.890;37.664;2024-03-02T05:20:07;100601.09;;;7.14;85.78
61900;BME280;47853;55.890;37.664;2024-03-02T05:22:32;100600.91;;;7.39;85.56
61900;BME280;47853;55.890;37.664;2024-03-02T05:24:58;100602.34;;;7.44;87.25
61900;BME280;47853;55.890;37.664;2024-03-02T05:27:23;100596.69;;;6.04;94.82
61900;BME280;47853;55.890;37.664;2024-03-02T05:29:49;100608.34;;;6.63;97.42
61900;BME280;47853;55.890;37.664;2024-03-02T05:32:14;100602.75;;;6.55;98.07
61900;BME280;47853;55.890;37.664;2024-03-02T05:34:40;100586.09;;;6.54;95.32
61900;BME280;47853;55.890;37.664;2024-03-02T05:37:05;100605.88;;;6.35;97.79
61900;BME280;47853;55.890;37.664;2024-03-02T05:39:31;100612.66;;;6.88;95.99
61900;BME280;47853;55.890;37.664;2024-03-02T05:41:56;100618.50;;;6.56;96.67
61900;BME280;47853;55.890;37.664;2024-03-02T05:44:21;100615.78;;;7.29;92.35
61900;BME280;47853;55.890;37.664;2024-03-02T05:46:47;100627.84;;;7.45;90.25
61900;BME280;47853;55.890;37.664;2024-03-02T05:49:12;100610.09;;;7.81;87.87
61900;BME280;47853;55.890;37.664;2024-03-02T05:51:38;100618.84;;;8.50;81.29
61900;BME280;47853;55.890;37.664;2024-03-02T05:54:03;100628.91;;;7.06;85.45
61900;BME280;47853;55.890;37.664;2024-03-02T05:56:29;100637.03;;;7.28;89.83
61900;BME280;47853;55.890;37.664;2024-03-02T05:58:54;100632.84;;;7.95;83.51
61900;BME280;47853;55.890;37.664;2024-03-02T06:01:19;100634.75;;;8.04;81.27
61900;BME280;47853;55.890;37.664;2024-03-02T06:03:45;100637.50;;;8.25;80.03
61900;BME280;47853;55.890;37.664;2024-03-02T06:06:10;100632.06;;;7.59;82.36
61900;BME280;47853;55.890;37.664;2024-03-02T06:08:36;100632.59;;;8.09;81.83
61900;BME280;47853;55.890;37.664;2024-03-02T06:11:01;100631.97;;;8.17;81.76
61900;BME280;47853;55.890;37.664;2024-03-02T06:13:27;100620.91;;;7.89;82.09
61900;BME280;47853;55.890;37.664;2024-03-02T06:15:52;100620.81;;;8.02;77.78
61900;BME280;47853;55.890;37.664;2024-03-02T06:18:18;100620.19;;;7.76;80.83
61900;BME280;47853;55.890;37.664;2024-03-02T06:20:43;100612.50;;;7.14;83.86
61900;BME280;47853;55.890;37.664;2024-03-02T06:23:09;100636.19;;;7.86;83.09
61900;BME280;47853;55.890;37.664;2024-03-02T06:25:34;100632.69;;;7.62;82.70
61900;BME280;47853;55.890;37.664;2024-03-02T06:28:00;100615.75;;;8.10;78.83
61900;BME280;47853;55.890;37.664;2024-03-02T06:30:25;100626.91;;;8.92;75.36
61900;BME280;47853;55.890;37.664;2024-03-02T06:32:50;100637.50;;;8.92;73.80
61900;BME280;47853;55.890;37.664;2024-03-02T06:35:16;100627.06;;;8.91;71.27
61900;BME280;47853;55.890;37.664;2024-03-02T06:37:41;100636.28;;;8.96;70.33
61900;BME280;47853;55.890;37.664;2024-03-02T06:40:07;100613.03;;;9.00;70.73
61900;BME280;47853;55.890;37.664;2024-03-02T06:42:34;100627.41;;;9.40;67.78
61900;BME280;47853;55.890;37.664;2024-03-02T06:45:00;100628.50;;;8.83;68.26
61900;BME280;47853;55.890;37.664;2024-03-02T06:47:25;100638.59;;;7.77;75.12
61900;BME280;47853;55.890;37.664;2024-03-02T06:49:51;100635.47;;;8.06;76.70
61900;BME280;47853;55.890;37.664;2024-03-02T06:52:16;100637.50;;;8.25;74.99
61900;BME280;47853;55.890;37.664;2024-03-02T06:54:42;100629.91;;;8.55;72.71
61900;BME280;47853;55.890;37.664;2024-03-02T06:57:07;100635.69;;;9.47;68.60
61900;BME280;47853;55.890;37.664;2024-03-02T06:59:33;100642.88;;;8.69;70.98
61900;BME280;47853;55.890;37.664;2024-03-02T07:01:58;100631.47;;;8.46;73.45
61900;BME280;47853;55.890;37.664;2024-03-02T07:04:24;100641.00;;;7.92;76.94
61900;BME280;47853;55.890;37.664;2024-03-02T07:06:49;100647.56;;;7.52;78.33
61900;BME280;47853;55.890;37.664;2024-03-02T07:09:15;100646.25;;;7.69;78.62
61900;BME280;47853;55.890;37.664;2024-03-02T07:11:40;100634.47;;;7.62;78.15
61900;BME280;47853;55.890;37.664;2024-03-02T07:14:05;100635.56;;;6.63;82.23
61900;BME280;47853;55.890;37.664;2024-03-02T07:16:31;100650.69;;;7.10;82.37
61900;BME280;47853;55.890;37.664;2024-03-02T07:18:56;100645.41;;;6.61;85.10
61900;BME280;47853;55.890;37.664;2024-03-02T07:21:25;100639.09;;;6.51;90.39
61900;BME280;47853;55.890;37.664;2024-03-02T07:23:50;100641.25;;;7.77;81.22
61900;BME280;47853;55.890;37.664;2024-03-02T07:26:16;100652.03;;;7.16;83.32
61900;BME280;47853;55.890;37.664;2024-03-02T07:28:42;100650.47;;;7.24;79.15
61900;BME280;47853;55.890;37.664;2024-03-02T07:31:07;100641.13;;;7.90;76.22
61900;BME280;47853;55.890;37.664;2024-03-02T07:33:33;100647.00;;;7.24;78.81
61900;BME280;47853;55.890;37.664;2024-03-02T07:36:00;100635.31;;;6.79;81.56
61900;BME280;47853;55.890;37.664;2024-03-02T07:38:26;100635.69;;;7.69;79.71
61900;BME280;47853;55.890;37.664;2024-03-02T07:40:52;100640.56;;;7.04;77.56
61900;BME280;47853;55.890;37.664;2024-03-02T07:43:18;100622.31;;;6.76;85.43
61900;BME280;47853;55.890;37.664;2024-03-02T07:45:44;100624.34;;;6.73;82.56
61900;BME280;47853;55.890;37.664;2024-03-02T07:48:09;100635.59;;;7.23;80.15
61900;BME280;47853;55.890;37.664;2024-03-02T07:50:35;100624.13;;;7.47;78.84
61900;BME280;47853;55.890;37.664;2024-03-02T07:53:04;100618.53;;;7.28;76.22
61900;BME280;47853;55.890;37.664;2024-03-02T07:55:30;100634.50;;;8.30;72.09
61900;BME280;47853;55.890;37.664;2024-03-02T07:57:59;100632.81;;;7.72;72.90
61900;BME280;47853;55.890;37.664;2024-03-02T08:00:25;100625.72;;;8.18;73.06
61900;BME280;47853;55.890;37.664;2024-03-02T08:02:51;100626.34;;;8.22;69.19
61900;BME280;47853;55.890;37.664;2024-03-02T08:05:17;100630.19;;;7.95;70.67
61900;BME280;47853;55.890;37.664;2024-03-02T08:07:44;100634.22;;;7.53;72.63
61900;BME280;47853;55.890;37.664;2024-03-02T08:10:10;100633.78;;;8.17;71.89
61900;BME280;47853;55.890;37.664;2024-03-02T08:12:35;100628.47;;;7.60;71.67
61900;BME280;47853;55.890;37.664;2024-03-02T08:15:01;100619.88;;;7.22;73.14
61900;BME280;47853;55.890;37.664;2024-03-02T08:17:26;100629.28;;;6.77;79.01
61900;BME280;47853;55.890;37.664;2024-03-02T08:19:52;100626.59;;;7.26;79.08
61900;BME280;47853;55.890;37.664;2024-03-02T08:22:22;100605.41;;;7.73;72.66
61900;BME280;47853;55.890;37.664;2024-03-02T08:24:47;100625.69;;;7.03;76.26
61900;BME280;47853;55.890;37.664;2024-03-02T08:27:13;100627.50;;;7.49;77.92
61900;BME280;47853;55.890;37.664;2024-03-02T08:29:38;100629.88;;;7.05;76.86
61900;BME280;47853;55.890;37.664;2024-03-02T08:32:05;100623.56;;;6.59;78.28
61900;BME280;47853;55.890;37.664;2024-03-02T08:34:30;100624.88;;;6.41;79.80
61900;BME280;47853;55.890;37.664;2024-03-02T08:36:56;100618.91;;;6.63;79.51
61900;BME280;47853;55.890;37.664;2024-03-02T08:39:21;100624.69;;;6.92;77.74
61900;BME280;47853;55.890;37.664;2024-03-02T08:41:47;100623.34;;;7.22;75.13
61900;BME280;47853;55.890;37.664;2024-03-02T08:44:13;100626.94;;;6.86;75.47
61900;BME280;47853;55.890;37.664;2024-03-02T08:46:39;100623.88;;;7.50;71.70
61900;BME280;47853;55.890;37.664;2024-03-02T08:49:05;100621.25;;;7.50;69.83
61900;BME280;47853;55.890;37.664;2024-03-02T08:51:31;100630.88;;;7.63;70.73
61900;BME280;47853;55.890;37.664;2024-03-02T08:53:56;100609.13;;;8.16;68.94
61900;BME280;47853;55.890;37.664;2024-03-02T08:56:22;100616.06;;;9.17;62.38
61900;BME280;47853;55.890;37.664;2024-03-02T08:58:47;100618.34;;;9.21;60.28
61900;BME280;47853;55.890;37.664;2024-03-02T09:01:12;100617.19;;;8.03;63.34
61900;BME280;47853;55.890;37.664;2024-03-02T09:03:38;100621.03;;;8.22;63.49
61900;BME280;47853;55.890;37.664;2024-03-02T09:06:03;100615.16;;;7.14;69.08
61900;BME280;47853;55.890;37.664;2024-03-02T09:08:29;100611.31;;;8.00;68.02
61900;BME280;47853;55.890;37.664;2024-03-02T09:10:55;100610.22;;;8.02;65.21
61900;BME280;47853;55.890;37.664;2024-03-02T09:13:21;100625.25;;;7.90;66.52
61900;BME280;47853;55.890;37.664;2024-03-02T09:15:46;100620.53;;;8.17;66.09
61900;BME280;47853;55.890;37.664;2024-03-02T09:18:12;100622.59;;;8.13;65.41
61900;BME280;47853;55.890;37.664;2024-03-02T09:20:37;100611.16;;;7.44;66.30
61900;BME280;47853;55.890;37.664;2024-03-02T09:23:15;100595.44;;;7.54;66.72
61900;BME280;47853;55.890;37.664;2024-03-02T09:25:40;100629.59;;;8.03;66.19
61900;BME280;47853;55.890;37.664;2024-03-02T09:28:06;100622.09;;;8.53;60.96
61900;BME280;47853;55.890;37.664;2024-03-02T09:30:31;100608.50;;;7.44;65.42
61900;BME280;47853;55.890;37.664;2024-03-02T09:32:57;100601.56;;;7.89;65.68
61900;BME280;47853;55.890;37.664;2024-03-02T09:35:22;100591.22;;;7.97;65.71
61900;BME280;47853;55.890;37.664;2024-03-02T09:37:48;100598.06;;;7.77;66.22
61900;BME280;47853;55.890;37.664;2024-03-02T09:40:13;100594.00;;;8.07;64.82
61900;BME280;47853;55.890;37.664;2024-03-02T09:42:40;100604.91;;;9.13;60.95
61900;BME280;47853;55.890;37.664;2024-03-02T09:45:06;100593.13;;;8.06;62.07
61900;BME280;47853;55.890;37.664;2024-03-02T09:47:32;100594.81;;;8.85;61.87
61900;BME280;47853;55.890;37.664;2024-03-02T09:49:58;100588.47;;;7.87;61.94
61900;BME280;47853;55.890;37.664;2024-03-02T09:52:23;100602.19;;;9.24;60.78
61900;BME280;47853;55.890;37.664;2024-03-02T09:54:49;100596.38;;;9.83;57.60
61900;BME280;47853;55.890;37.664;2024-03-02T09:57:15;100597.19;;;10.85;53.20
61900;BME280;47853;55.890;37.664;2024-03-02T09:59:40;100593.41;;;9.76;54.76
61900;BME280;47853;55.890;37.664;2024-03-02T10:02:06;100588.75;;;9.68;55.75
61900;BME280;47853;55.890;37.664;2024-03-02T10:04:31;100601.84;;;9.91;53.39
61900;BME280;47853;55.890;37.664;2024-03-02T10:07:16;100596.97;;;8.80;58.42
61900;BME280;47853;55.890;37.664;2024-03-02T10:09:44;100588.59;;;8.64;58.59
61900;BME280;47853;55.890;37.664;2024-03-02T10:12:11;100599.75;;;8.79;58.56
61900;BME280;47853;55.890;37.664;2024-03-02T10:14:37;100589.91;;;8.69;60.22
61900;BME280;47853;55.890;37.664;2024-03-02T10:17:07;100593.19;;;8.62;62.03
61900;BME280;47853;55.890;37.664;2024-03-02T10:19:33;100587.63;;;8.65;60.63
61900;BME280;47853;55.890;37.664;2024-03-02T10:21:59;100606.63;;;9.03;59.52
61900;BME280;47853;55.890;37.664;2024-03-02T10:24:25;100590.72;;;9.03;60.82
61900;BME280;47853;55.890;37.664;2024-03-02T10:26:51;100586.63;;;9.10;60.50
61900;BME280;47853;55.890;37.664;2024-03-02T10:29:17;100594.88;;;8.63;60.79
61900;BME280;47853;55.890;37.664;2024-03-02T10:31:45;100601.56;;;9.32;60.00
61900;BME280;47853;55.890;37.664;2024-03-02T10:34:11;100597.13;;;9.00;60.19
61900;BME280;47853;55.890;37.664;2024-03-02T10:36:41;100608.53;;;9.85;58.69
61900;BME280;47853;55.890;37.664;2024-03-02T10:39:08;100606.34;;;10.00;55.91
61900;BME280;47853;55.890;37.664;2024-03-02T10:41:35;100609.28;;;9.03;58.27
61900;BME280;47853;55.890;37.664;2024-03-02T10:44:05;100613.94;;;8.22;63.71
61900;BME280;47853;55.890;37.664;2024-03-02T10:46:33;100604.91;;;9.13;62.56
61900;BME280;47853;55.890;37.664;2024-03-02T10:49:00;100604.19;;;9.11;60.17
61900;BME280;47853;55.890;37.664;2024-03-02T10:51:27;100623.66;;;8.56;61.98
61900;BME280;47853;55.890;37.664;2024-03-02T10:53:55;100620.06;;;8.11;64.50
61900;BME280;47853;55.890;37.664;2024-03-02T10:56:43;100613.91;;;8.56;64.71
61900;BME280;47853;55.890;37.664;2024-03-02T10:59:26;100613.72;;;8.81;62.03
61900;BME280;47853;55.890;37.664;2024-03-02T11:01:56;100608.22;;;8.61;61.86
61900;BME280;47853;55.890;37.664;2024-03-02T11:04:23;100616.72;;;8.21;63.73
61900;BME280;47853;55.890;37.664;2024-03-02T11:06:50;100607.53;;;7.45;65.58
61900;BME280;47853;55.890;37.664;2024-03-02T11:09:19;100608.75;;;7.05;72.72
61900;BME280;47853;55.890;37.664;2024-03-02T11:11:50;100615.34;;;7.47;69.50
61900;BME280;47853;55.890;37.664;2024-03-02T11:14:24;100622.47;;;8.37;68.12
61900;BME280;47853;55.890;37.664;2024-03-02T11:16:50;100624.41;;;8.12;66.59
61900;BME280;47853;55.890;37.664;2024-03-02T11:19:16;100617.53;;;8.33;64.72
61900;BME280;47853;55.890;37.664;2024-03-02T11:21:42;100609.34;;;8.47;62.68
61900;BME280;47853;55.890;37.664;2024-03-02T11:26:52;100606.72;;;8.80;59.52
61900;BME280;47853;55.890;37.664;2024-03-02T11:32:02;100596.81;;;9.36;57.55
61900;BME280;47853;55.890;37.664;2024-03-02T11:34:33;100603.63;;;9.81;55.10
61900;BME280;47853;55.890;37.664;2024-03-02T11:36:59;100599.38;;;8.28;60.69
61900;BME280;47853;55.890;37.664;2024-03-02T11:39:26;100596.25;;;8.34;61.35
61900;BME280;47853;55.890;37.664;2024-03-02T11:41:52;100594.88;;;9.17;59.54
61900;BME280;47853;55.890;37.664;2024-03-02T11:44:17;100597.53;;;9.17;57.38
61900;BME280;47853;55.890;37.664;2024-03-02T11:47:01;100600.31;;;8.50;58.25
61900;BME280;47853;55.890;37.664;2024-03-02T11:49:46;100600.84;;;8.21;62.22
61900;BME280;47853;55.890;37.664;2024-03-02T11:52:14;100585.69;;;7.66;64.23
61900;BME280;47853;55.890;37.664;2024-03-02T11:54:42;100603.59;;;7.85;66.91
61900;BME280;47853;55.890;37.664;2024-03-02T11:57:08;100600.25;;;8.73;61.16
61900;BME280;47853;55.890;37.664;2024-03-02T11:59:33;100605.50;;;8.51;61.35
61900;BME280;47853;55.890;37.664;2024-03-02T12:01:59;100606.72;;;7.56;63.79
61900;BME280;47853;55.890;37.664;2024-03-02T12:04:26;100599.56;;;7.22;65.86
61900;BME280;47853;55.890;37.664;2024-03-02T12:06:59;100605.66;;;7.81;66.54
61900;BME280;47853;55.890;37.664;2024-03-02T12:09:28;100613.75;;;8.69;61.49
61900;BME280;47853;55.890;37.664;2024-03-02T12:12:09;100615.00;;;6.56;70.63
61900;BME280;47853;55.890;37.664;2024-03-02T12:14:38;100601.47;;;6.60;71.64
61900;BME280;47853;55.890;37.664;2024-03-02T12:17:04;100603.66;;;6.91;70.59
61900;BME280;47853;55.890;37.664;2024-03-02T12:19:31;100604.91;;;7.45;69.95
61900;BME280;47853;55.890;37.664;2024-03-02T12:21:57;100611.78;;;7.82;66.82
61900;BME280;47853;55.890;37.664;2024-03-02T12:24:23;100590.75;;;8.03;64.02
61900;BME280;47853;55.890;37.664;2024-03-02T12:26:53;100595.56;;;7.87;62.88
61900;BME280;47853;55.890;37.664;2024-03-02T12:29:19;100600.84;;;7.98;63.08
61900;BME280;47853;55.890;37.664;2024-03-02T12:31:45;100603.47;;;8.32;61.91
61900;BME280;47853;55.890;37.664;2024-03-02T12:34:13;100598.78;;;7.90;60.61
61900;BME280;47853;55.890;37.664;2024-03-02T12:36:39;100595.56;;;7.75;62.82
61900;BME280;47853;55.890;37.664;2024-03-02T12:39:04;100604.66;;;7.37;63.15
61900;BME280;47853;55.890;37.664;2024-03-02T12:41:30;100608.41;;;7.68;63.10
61900;BME280;47853;55.890;37.664;2024-03-02T12:43:56;100600.72;;;7.07;62.46
61900;BME280;47853;55.890;37.664;2024-03-02T12:46:21;100598.72;;;6.86;66.41
61900;BME280;47853;55.890;37.664;2024-03-02T12:48:47;100596.81;;;6.88;66.07
61900;BME280;47853;55.890;37.664;2024-03-02T12:51:12;100582.06;;;7.44;64.30